Time;durP1;ratioP1;P1;durP2;ratioP2;P2;SDS_P1;SDS_P2;PMS_P1;PMS_P2;Temp;Humidity;BMP_temperature;BMP_pressure;BME280_temperature;BME280_humidity;BME280_pressure;Samples;Min_cycle;Max_cycle;Signal;HPM_P1;HPM_P2
2021/07/12 00:00:34;;;;;;;;;;;22.30;66.30;;;;;;4970662;28;20013;-70
2021/07/12 00:03:00;;;;;;;;;;;22.30;66.20;;;;;;4971484;28;19997;-70
2021/07/12 00:05:25;;;;;;;;;;;22.30;66.20;;;;;;4970993;28;19926;-71
2021/07/12 00:07:50;;;;;;;;;;;22.30;66.00;;;;;;4970812;28;19926;-71
2021/07/12 00:10:17;;;;;;;;;;;22.30;66.10;;;;;;4970346;28;20408;-70
2021/07/12 00:12:42;;;;;;;;;;;22.30;66.10;;;;;;4971424;28;19956;-70
2021/07/12 00:15:08;;;;;;;;;;;22.30;66.00;;;;;;4970816;28;19942;-70
2021/07/12 00:17:34;;;;;;;;;;;22.30;66.00;;;;;;4963347;28;19933;-70
2021/07/12 00:19:59;;;;;;;;;;;22.30;66.00;;;;;;4970613;28;19918;-70
2021/07/12 00:22:25;;;;;;;;;;;22.30;66.00;;;;;;4970394;28;20385;-69
2021/07/12 00:24:50;;;;;;;;;;;22.30;65.90;;;;;;4971284;28;19925;-71
2021/07/12 00:27:16;;;;;;;;;;;22.30;65.90;;;;;;4969989;28;19922;-70
2021/07/12 00:29:41;;;;;;;;;;;22.30;65.90;;;;;;4970624;28;19918;-70
2021/07/12 00:32:07;;;;;;;;;;;22.30;65.80;;;;;;4970717;28;19993;-70
2021/07/12 00:34:32;;;;;;;;;;;22.30;65.80;;;;;;4969924;28;19925;-70
2021/07/12 00:36:58;;;;;;;;;;;22.30;65.80;;;;;;4970332;28;20009;-70
2021/07/12 00:39:23;;;;;;;;;;;22.30;65.80;;;;;;4970047;28;20409;-70
2021/07/12 00:41:49;;;;;;;;;;;22.30;65.80;;;;;;4969867;28;19957;-70
2021/07/12 00:44:14;;;;;;;;;;;22.20;65.70;;;;;;4970561;28;19922;-70
2021/07/12 00:46:40;;;;;;;;;;;22.20;65.70;;;;;;4974978;28;21526;-70
2021/07/12 00:49:05;;;;;;;;;;;22.20;65.80;;;;;;4969845;28;20393;-70
2021/07/12 00:51:31;;;;;;;;;;;22.30;65.70;;;;;;4969437;28;19940;-70
2021/07/12 00:53:56;;;;;;;;;;;22.30;65.80;;;;;;4968536;28;19922;-70
2021/07/12 00:56:21;;;;;;;;;;;22.30;65.70;;;;;;4969321;28;20300;-71
2021/07/12 00:58:47;;;;;;;;;;;22.30;65.60;;;;;;4969424;28;19926;-70
2021/07/12 01:01:12;;;;;;;;;;;22.20;65.60;;;;;;4970280;28;19918;-70
2021/07/12 01:03:38;;;;;;;;;;;22.30;65.60;;;;;;4969327;28;19922;-70
2021/07/12 01:06:03;;;;;;;;;;;22.20;65.60;;;;;;4969423;28;20039;-70
2021/07/12 01:08:29;;;;;;;;;;;22.20;65.60;;;;;;4969255;28;19918;-70
2021/07/12 01:10:59;;;;;;;;;;;22.20;65.60;;;;;;4969314;28;20644;-69
2021/07/12 01:13:35;;;;;;;;;;;22.20;65.60;;;;;;4968098;28;19922;-71
2021/07/12 01:16:06;;;;;;;;;;;22.20;65.60;;;;;;4968733;28;19972;-70
2021/07/12 01:18:33;;;;;;;;;;;22.20;65.60;;;;;;4969530;28;19965;-70
2021/07/12 01:21:07;;;;;;;;;;;22.20;65.60;;;;;;4968715;28;19923;-70
2021/07/12 01:23:42;;;;;;;;;;;22.20;65.50;;;;;;4969804;28;20412;-70
2021/07/12 01:26:26;;;;;;;;;;;22.20;65.40;;;;;;4969625;28;19922;-70
2021/07/12 01:29:02;;;;;;;;;;;22.20;65.50;;;;;;4962760;28;19918;-70
2021/07/12 01:31:27;;;;;;;;;;;22.20;65.50;;;;;;4967617;28;19925;-70
2021/07/12 01:34:23;;;;;;;;;;;22.20;65.40;;;;;;4969028;28;20293;-70
2021/07/12 01:36:52;;;;;;;;;;;22.20;65.40;;;;;;4926629;28;19919;-70
2021/07/12 01:39:27;;;;;;;;;;;22.20;65.40;;;;;;4966875;28;19969;-70
2021/07/12 01:42:12;;;;;;;;;;;22.20;65.40;;;;;;4963024;28;19926;-71
2021/07/12 01:44:57;;;;;;;;;;;22.20;65.40;;;;;;4969215;28;19929;-71
2021/07/12 01:47:25;;;;;;;;;;;22.10;65.30;;;;;;4962524;28;19933;-71
2021/07/12 01:49:59;;;;;;;;;;;22.20;65.40;;;;;;4969871;28;19918;-71
2021/07/12 01:52:28;;;;;;;;;;;22.20;65.30;;;;;;4967730;28;19922;-72
2021/07/12 01:54:58;;;;;;;;;;;22.20;65.30;;;;;;4968326;28;19941;-70
2021/07/12 01:57:25;;;;;;;;;;;22.20;65.30;;;;;;4969354;28;20083;-71
2021/07/12 01:59:53;;;;;;;;;;;22.20;65.30;;;;;;4968610;28;20404;-71
2021/07/12 02:02:18;;;;;;;;;;;22.10;65.20;;;;;;4964800;28;19925;-69
2021/07/12 02:04:43;;;;;;;;;;;22.20;65.20;;;;;;4973201;28;19925;-71
2021/07/12 02:07:12;;;;;;;;;;;22.10;65.20;;;;;;4972774;28;19925;-71
2021/07/12 02:09:37;;;;;;;;;;;22.10;65.10;;;;;;4969200;28;20393;-70
2021/07/12 02:12:03;;;;;;;;;;;22.10;65.10;;;;;;4967176;28;19919;-68
2021/07/12 02:14:28;;;;;;;;;;;22.10;65.10;;;;;;4968080;28;20357;-70
2021/07/12 02:16:54;;;;;;;;;;;22.10;65.00;;;;;;4966943;28;19918;-70
2021/07/12 02:19:19;;;;;;;;;;;22.10;65.00;;;;;;4966940;28;20405;-71
2021/07/12 02:21:46;;;;;;;;;;;22.20;65.00;;;;;;4967019;28;19922;-72
2021/07/12 02:24:11;;;;;;;;;;;22.10;65.10;;;;;;4966161;28;19969;-71
2021/07/12 02:26:37;;;;;;;;;;;22.10;64.90;;;;;;4966608;28;19926;-70
2021/07/12 02:29:03;;;;;;;;;;;22.10;64.90;;;;;;4968416;28;19922;-70
2021/07/12 02:31:29;;;;;;;;;;;22.10;64.90;;;;;;4968024;28;20405;-71
2021/07/12 02:33:54;;;;;;;;;;;22.10;64.90;;;;;;4966653;28;20004;-71
2021/07/12 02:36:20;;;;;;;;;;;22.10;65.00;;;;;;4965900;28;20061;-71
2021/07/12 02:38:45;;;;;;;;;;;22.10;65.00;;;;;;4959393;28;19918;-71
2021/07/12 02:41:11;;;;;;;;;;;22.10;64.90;;;;;;4968116;28;20499;-71
2021/07/12 02:43:36;;;;;;;;;;;22.10;64.80;;;;;;4968628;28;19980;-70
2021/07/12 02:46:02;;;;;;;;;;;22.10;64.90;;;;;;4968762;28;19925;-71
2021/07/12 02:48:28;;;;;;;;;;;22.10;64.80;;;;;;4967533;28;19918;-72
2021/07/12 02:50:53;;;;;;;;;;;22.10;64.90;;;;;;4966733;28;19919;-71
2021/07/12 02:53:22;;;;;;;;;;;22.00;64.80;;;;;;4966340;28;20300;-71
2021/07/12 02:55:47;;;;;;;;;;;22.10;64.80;;;;;;4968118;28;20440;-71
2021/07/12 02:58:13;;;;;;;;;;;22.10;64.80;;;;;;4968224;28;19941;-71
2021/07/12 03:00:38;;;;;;;;;;;22.10;64.80;;;;;;4968721;28;20312;-71
2021/07/12 03:03:04;;;;;;;;;;;22.10;64.70;;;;;;4972720;28;19918;-70
2021/07/12 03:05:30;;;;;;;;;;;22.10;64.70;;;;;;4973696;28;19918;-70
2021/07/12 03:08:02;;;;;;;;;;;22.10;64.70;;;;;;4969220;28;20400;-71
2021/07/12 03:10:30;;;;;;;;;;;22.10;64.70;;;;;;4966313;28;19918;-70
2021/07/12 03:12:59;;;;;;;;;;;22.00;64.70;;;;;;4970229;28;20008;-71
2021/07/12 03:15:29;;;;;;;;;;;22.10;64.70;;;;;;4971060;28;20292;-72
2021/07/12 03:17:54;;;;;;;;;;;22.10;64.70;;;;;;4971758;28;20464;-72
2021/07/12 03:20:20;;;;;;;;;;;22.00;64.70;;;;;;4976806;28;19922;-70
2021/07/12 03:22:50;;;;;;;;;;;22.00;64.80;;;;;;4971178;28;20005;-71
2021/07/12 03:25:16;;;;;;;;;;;22.00;64.80;;;;;;4978993;28;19996;-70
2021/07/12 03:27:41;;;;;;;;;;;22.00;64.90;;;;;;4989263;28;20527;-73
2021/07/12 03:30:09;;;;;;;;;;;22.00;64.90;;;;;;4983095;28;21546;-70
2021/07/12 03:32:34;;;;;;;;;;;22.10;64.90;;;;;;4978785;28;19921;-70
2021/07/12 03:34:59;;;;;;;;;;;22.00;64.90;;;;;;4968761;28;20471;-70
2021/07/12 03:37:25;;;;;;;;;;;22.00;64.90;;;;;;4965890;28;19929;-71
2021/07/12 03:39:51;;;;;;;;;;;22.00;64.80;;;;;;4967567;28;19922;-71
2021/07/12 03:42:17;;;;;;;;;;;22.00;64.90;;;;;;4974213;28;19968;-71
2021/07/12 03:44:42;;;;;;;;;;;22.00;64.90;;;;;;4968932;28;19917;-70
2021/07/12 03:47:08;;;;;;;;;;;22.00;64.80;;;;;;4970311;28;19919;-71
2021/07/12 03:49:33;;;;;;;;;;;22.00;64.80;;;;;;4966334;28;19918;-72
2021/07/12 03:51:59;;;;;;;;;;;22.00;64.80;;;;;;4971277;28;20016;-71
2021/07/12 03:54:24;;;;;;;;;;;22.00;64.90;;;;;;4970529;28;20424;-70
2021/07/12 03:56:50;;;;;;;;;;;22.00;64.90;;;;;;4963363;28;19918;-71
2021/07/12 03:59:15;;;;;;;;;;;22.00;64.80;;;;;;4969236;28;19922;-71
2021/07/12 04:01:41;;;;;;;;;;;22.00;64.90;;;;;;4972524;28;20408;-71
2021/07/12 04:04:07;;;;;;;;;;;22.00;64.80;;;;;;4970611;28;20010;-72
2021/07/12 04:06:32;;;;;;;;;;;21.90;64.80;;;;;;4976747;28;20370;-71
2021/07/12 04:08:58;;;;;;;;;;;22.00;64.90;;;;;;4974603;28;19965;-71
2021/07/12 04:11:29;;;;;;;;;;;22.00;64.80;;;;;;4975759;28;19918;-72
2021/07/12 04:13:54;;;;;;;;;;;22.00;64.80;;;;;;4974626;28;19928;-72
2021/07/12 04:16:20;;;;;;;;;;;22.00;64.70;;;;;;4970343;28;19922;-70
2021/07/12 04:18:45;;;;;;;;;;;22.00;64.80;;;;;;4969871;28;20378;-72
2021/07/12 04:21:11;;;;;;;;;;;22.00;64.80;;;;;;4973448;28;20073;-71
2021/07/12 04:23:36;;;;;;;;;;;22.00;64.80;;;;;;4965481;28;19985;-71
2021/07/12 04:26:02;;;;;;;;;;;21.90;64.80;;;;;;4969200;28;20366;-64
2021/07/12 04:28:27;;;;;;;;;;;21.90;64.70;;;;;;4974365;28;19922;-64
2021/07/12 04:30:53;;;;;;;;;;;21.90;64.80;;;;;;4977552;28;19919;-63
2021/07/12 04:33:18;;;;;;;;;;;21.90;64.70;;;;;;4980413;28;20029;-66
2021/07/12 04:35:44;;;;;;;;;;;22.00;64.80;;;;;;4975216;28;19918;-69
2021/07/12 04:38:09;;;;;;;;;;;21.90;64.70;;;;;;4969943;28;20131;-71
2021/07/12 04:40:35;;;;;;;;;;;21.90;64.70;;;;;;4974760;28;19971;-71
2021/07/12 04:43:00;;;;;;;;;;;21.90;64.70;;;;;;4969230;28;20381;-69
2021/07/12 04:45:27;;;;;;;;;;;21.90;64.70;;;;;;4969465;28;19929;-67
2021/07/12 04:47:53;;;;;;;;;;;22.00;64.80;;;;;;4968713;28;19926;-71
2021/07/12 04:50:18;;;;;;;;;;;22.00;64.90;;;;;;4967451;28;19918;-71
2021/07/12 04:52:44;;;;;;;;;;;22.00;65.10;;;;;;4966431;28;20305;-72
2021/07/12 04:55:09;;;;;;;;;;;22.00;65.20;;;;;;4966653;28;19918;-72
2021/07/12 04:57:35;;;;;;;;;;;22.00;65.40;;;;;;4973111;28;20363;-69
2021/07/12 05:00:02;;;;;;;;;;;22.00;65.60;;;;;;4966787;28;19922;-69
2021/07/12 05:02:27;;;;;;;;;;;22.00;65.20;;;;;;4966244;28;20334;-70
2021/07/12 05:04:52;;;;;;;;;;;21.90;65.00;;;;;;4970167;28;19922;-69
2021/07/12 05:07:18;;;;;;;;;;;21.90;64.90;;;;;;4975193;28;20467;-71
2021/07/12 05:09:43;;;;;;;;;;;21.90;65.00;;;;;;4971283;28;19918;-70
2021/07/12 05:12:12;;;;;;;;;;;21.90;64.60;;;;;;4970740;28;19976;-70
2021/07/12 05:14:38;;;;;;;;;;;21.80;64.60;;;;;;4968840;28;19926;-70
2021/07/12 05:17:04;;;;;;;;;;;21.90;64.80;;;;;;4961442;28;19965;-71
2021/07/12 05:19:29;;;;;;;;;;;21.90;64.80;;;;;;4965391;28;19969;-72
2021/07/12 05:21:54;;;;;;;;;;;21.90;65.20;;;;;;4968361;28;19948;-69
2021/07/12 05:24:20;;;;;;;;;;;21.90;65.70;;;;;;4969253;28;19918;-73
2021/07/12 05:26:45;;;;;;;;;;;22.00;65.80;;;;;;4967010;28;20393;-70
2021/07/12 05:29:11;;;;;;;;;;;22.00;65.70;;;;;;4968626;28;19969;-71
2021/07/12 05:31:36;;;;;;;;;;;22.00;65.50;;;;;;4986202;28;19924;-68
2021/07/12 05:34:02;;;;;;;;;;;21.90;65.10;;;;;;4977715;28;19949;-69
2021/07/12 05:36:27;;;;;;;;;;;21.90;65.80;;;;;;4981361;28;20325;-69
2021/07/12 05:38:52;;;;;;;;;;;21.90;64.90;;;;;;4977568;28;19925;-68
2021/07/12 05:41:18;;;;;;;;;;;21.90;65.10;;;;;;4970845;28;19924;-69
2021/07/12 05:43:43;;;;;;;;;;;21.90;65.20;;;;;;4984781;28;19969;-64
2021/07/12 05:46:09;;;;;;;;;;;22.00;65.70;;;;;;4974439;28;20289;-71
2021/07/12 05:48:34;;;;;;;;;;;22.00;65.70;;;;;;4972899;28;19940;-68
2021/07/12 05:51:00;;;;;;;;;;;22.00;65.90;;;;;;4981592;28;20001;-66
2021/07/12 05:53:25;;;;;;;;;;;22.00;66.00;;;;;;4979178;28;19926;-65
2021/07/12 05:55:51;;;;;;;;;;;22.00;65.90;;;;;;4976386;28;19918;-69
2021/07/12 05:58:16;;;;;;;;;;;21.90;65.90;;;;;;4969924;28;19914;-65
2021/07/12 06:00:42;;;;;;;;;;;21.90;65.80;;;;;;4984002;28;19925;-69
2021/07/12 06:03:07;;;;;;;;;;;22.00;65.90;;;;;;4984141;28;19945;-63
2021/07/12 06:05:32;;;;;;;;;;;22.00;66.00;;;;;;4964718;28;19914;-67
2021/07/12 06:07:58;;;;;;;;;;;22.00;65.90;;;;;;4976524;28;19941;-69
2021/07/12 06:10:23;;;;;;;;;;;22.00;65.80;;;;;;4976778;28;20333;-65
2021/07/12 06:12:49;;;;;;;;;;;22.00;65.80;;;;;;4977598;28;19972;-67
2021/07/12 06:15:14;;;;;;;;;;;22.00;65.80;;;;;;4973794;28;20384;-66
2021/07/12 06:17:40;;;;;;;;;;;22.00;65.80;;;;;;4977941;28;19914;-66
2021/07/12 06:20:06;;;;;;;;;;;22.00;65.80;;;;;;4972986;28;19922;-65
2021/07/12 06:22:31;;;;;;;;;;;22.00;66.00;;;;;;4972909;28;19921;-65
2021/07/12 06:24:57;;;;;;;;;;;22.00;65.70;;;;;;4963431;28;20452;-66
2021/07/12 06:27:22;;;;;;;;;;;21.90;65.80;;;;;;4976346;28;19953;-68
2021/07/12 06:29:48;;;;;;;;;;;21.90;66.10;;;;;;4970490;28;20381;-68
2021/07/12 06:32:13;;;;;;;;;;;21.90;66.00;;;;;;4971660;28;20897;-67
2021/07/12 06:34:38;;;;;;;;;;;22.00;66.00;;;;;;4972770;28;19921;-66
2021/07/12 06:37:04;;;;;;;;;;;21.90;66.10;;;;;;4976527;28;20364;-69
2021/07/12 06:39:30;;;;;;;;;;;22.00;66.10;;;;;;4966590;28;19922;-67
2021/07/12 06:41:55;;;;;;;;;;;21.90;65.80;;;;;;4968027;28;19919;-69
2021/07/12 06:44:20;;;;;;;;;;;21.80;66.00;;;;;;4980141;28;20012;-67
2021/07/12 06:46:46;;;;;;;;;;;21.80;66.10;;;;;;4970899;28;20195;-68
2021/07/12 06:49:11;;;;;;;;;;;21.90;66.30;;;;;;4976618;28;19957;-69
2021/07/12 06:51:37;;;;;;;;;;;21.90;66.50;;;;;;4983589;28;19917;-69
2021/07/12 06:54:02;;;;;;;;;;;21.90;66.70;;;;;;4975950;28;19922;-68
2021/07/12 06:56:28;;;;;;;;;;;21.90;66.90;;;;;;4984528;28;19914;-69
2021/07/12 06:58:53;;;;;;;;;;;21.90;67.00;;;;;;4974820;28;20450;-71
2021/07/12 07:01:18;;;;;;;;;;;21.90;66.80;;;;;;4980810;28;19914;-66
2021/07/12 07:03:44;;;;;;;;;;;21.90;67.00;;;;;;4975747;28;19914;-70
2021/07/12 07:06:09;;;;;;;;;;;21.90;66.90;;;;;;4967290;28;19977;-69
2021/07/12 07:08:35;;;;;;;;;;;21.90;67.00;;;;;;4976695;28;19914;-69
2021/07/12 07:11:00;;;;;;;;;;;21.90;67.00;;;;;;4977003;28;19945;-64
2021/07/12 07:13:26;;;;;;;;;;;21.90;67.10;;;;;;4984512;28;19929;-69
2021/07/12 07:15:51;;;;;;;;;;;21.90;67.00;;;;;;4969033;28;20065;-66
2021/07/12 07:18:17;;;;;;;;;;;21.90;67.10;;;;;;4966280;28;20283;-66
2021/07/12 07:20:43;;;;;;;;;;;21.90;67.10;;;;;;4973804;28;19958;-68
2021/07/12 07:23:08;;;;;;;;;;;21.90;67.20;;;;;;4984944;28;20005;-64
2021/07/12 07:25:34;;;;;;;;;;;21.90;67.00;;;;;;4976035;28;20013;-70
2021/07/12 07:28:01;;;;;;;;;;;21.90;66.90;;;;;;4973202;28;20265;-69
2021/07/12 07:30:26;;;;;;;;;;;21.90;67.00;;;;;;4973825;28;19966;-67
2021/07/12 07:32:52;;;;;;;;;;;21.90;67.00;;;;;;4981450;28;19926;-67
2021/07/12 07:35:17;;;;;;;;;;;21.90;66.90;;;;;;4985985;28;20506;-67
2021/07/12 07:37:43;;;;;;;;;;;21.90;66.50;;;;;;4973720;28;19914;-65
2021/07/12 07:42:39;;;;;;;;;;;22.00;67.00;;;;;;5001262;22;19940;-71
2021/07/12 07:45:05;;;;;;;;;;;22.00;66.90;;;;;;4987292;28;20766;-72
2021/07/12 07:47:30;;;;;;;;;;;22.00;66.70;;;;;;4995374;28;20294;-72
2021/07/12 07:49:55;;;;;;;;;;;22.00;66.80;;;;;;4997734;28;19914;-72
2021/07/12 07:52:21;;;;;;;;;;;22.00;66.50;;;;;;4995825;28;19914;-72
2021/07/12 07:54:46;;;;;;;;;;;22.00;66.40;;;;;;4996920;28;19957;-72
2021/07/12 07:57:12;;;;;;;;;;;21.90;66.40;;;;;;4989669;28;19914;-73
2021/07/12 07:59:37;;;;;;;;;;;21.90;66.30;;;;;;4999363;28;20031;-70
2021/07/12 08:02:03;;;;;;;;;;;21.90;66.40;;;;;;5005343;28;19949;-72
2021/07/12 08:04:28;;;;;;;;;;;22.00;66.30;;;;;;4997930;28;19968;-72
2021/07/12 08:06:55;;;;;;;;;;;21.90;66.30;;;;;;4998639;28;20398;-72
2021/07/12 08:09:21;;;;;;;;;;;21.90;66.40;;;;;;5001483;28;19913;-71
2021/07/12 08:11:48;;;;;;;;;;;21.90;66.40;;;;;;5005389;28;19961;-73
2021/07/12 08:14:14;;;;;;;;;;;21.90;66.50;;;;;;4990077;28;19926;-72
2021/07/12 08:16:39;;;;;;;;;;;21.90;66.40;;;;;;4993163;28;19965;-71
2021/07/12 08:19:05;;;;;;;;;;;21.90;66.70;;;;;;4997915;28;20011;-71
2021/07/12 08:21:30;;;;;;;;;;;21.90;66.70;;;;;;4996806;28;19913;-72
2021/07/12 08:23:55;;;;;;;;;;;21.90;66.70;;;;;;5002463;28;19913;-72
2021/07/12 08:26:21;;;;;;;;;;;21.90;66.50;;;;;;4994530;28;19914;-73
2021/07/12 08:28:46;;;;;;;;;;;21.90;67.00;;;;;;4984683;28;19995;-73
2021/07/12 08:31:12;;;;;;;;;;;21.90;66.50;;;;;;4995821;28;19996;-72
2021/07/12 08:33:38;;;;;;;;;;;21.90;66.70;;;;;;4991337;28;19921;-72
2021/07/12 08:36:03;;;;;;;;;;;21.90;66.50;;;;;;4995435;28;19925;-72
2021/07/12 08:38:29;;;;;;;;;;;21.90;66.40;;;;;;4995357;28;19988;-72
2021/07/12 08:40:55;;;;;;;;;;;21.90;66.30;;;;;;5000928;28;19925;-73
2021/07/12 08:43:21;;;;;;;;;;;22.00;66.50;;;;;;5001440;28;19914;-72
2021/07/12 08:45:46;;;;;;;;;;;22.00;66.50;;;;;;4991374;28;19914;-72
2021/07/12 08:48:12;;;;;;;;;;;22.00;66.80;;;;;;4988887;28;20449;-72
2021/07/12 08:50:37;;;;;;;;;;;22.00;66.50;;;;;;5001841;28;19956;-73
2021/07/12 08:53:03;;;;;;;;;;;21.90;66.70;;;;;;4991871;28;19921;-72
2021/07/12 08:55:28;;;;;;;;;;;22.00;66.70;;;;;;4998532;28;19937;-72
2021/07/12 08:58:19;;;;;;;;;;;21.90;66.00;;;;;;4989433;28;19914;-72
2021/07/12 09:00:46;;;;;;;;;;;21.90;65.90;;;;;;5013144;28;20153;-71
2021/07/12 09:03:28;;;;;;;;;;;21.90;65.80;;;;;;4999315;28;19921;-71
2021/07/12 09:06:00;;;;;;;;;;;21.90;65.90;;;;;;4996638;28;20016;-72
2021/07/12 09:08:48;;;;;;;;;;;21.90;65.80;;;;;;5006238;28;19925;-72
2021/07/12 09:11:13;;;;;;;;;;;21.90;66.30;;;;;;4985833;28;19953;-72
2021/07/12 09:13:45;;;;;;;;;;;22.00;66.10;;;;;;4985172;28;20684;-72
2021/07/12 09:16:29;;;;;;;;;;;22.00;66.10;;;;;;4993015;28;20377;-73
2021/07/12 09:19:03;;;;;;;;;;;22.00;66.30;;;;;;4989656;28;19921;-72
2021/07/12 09:21:39;;;;;;;;;;;22.00;66.30;;;;;;5001052;28;20321;-72
2021/07/12 09:24:18;;;;;;;;;;;22.00;66.20;;;;;;5003441;28;20422;-72
2021/07/12 09:26:45;;;;;;;;;;;22.00;66.20;;;;;;5002935;28;19913;-72
2021/07/12 09:29:17;;;;;;;;;;;21.90;65.90;;;;;;4991102;28;19914;-72
2021/07/12 09:31:42;;;;;;;;;;;22.00;66.00;;;;;;4995589;28;19921;-72
2021/07/12 09:34:08;;;;;;;;;;;22.00;66.00;;;;;;4998153;28;20381;-72
2021/07/12 09:36:33;;;;;;;;;;;22.00;66.00;;;;;;4993495;28;20021;-73
2021/07/12 09:39:15;;;;;;;;;;;22.00;65.90;;;;;;4993843;28;20503;-72
2021/07/12 09:41:40;;;;;;;;;;;22.00;65.90;;;;;;4990804;28;19921;-72
2021/07/12 09:44:06;;;;;;;;;;;22.00;64.90;;;;;;4988871;28;19917;-71
2021/07/12 09:46:31;;;;;;;;;;;22.00;65.20;;;;;;5000985;28;20375;-72
2021/07/12 09:49:05;;;;;;;;;;;22.00;65.50;;;;;;4974343;28;19914;-73
2021/07/12 09:51:31;;;;;;;;;;;22.00;66.50;;;;;;4992907;28;20327;-72
2021/07/12 09:53:56;;;;;;;;;;;22.00;65.80;;;;;;4982861;28;19922;-73
2021/07/12 09:56:25;;;;;;;;;;;22.00;65.80;;;;;;5003933;28;20283;-73
2021/07/12 09:58:54;;;;;;;;;;;22.00;65.80;;;;;;4993366;28;19925;-72
2021/07/12 10:01:23;;;;;;;;;;;22.00;65.70;;;;;;4992025;28;20379;-73
2021/07/12 10:03:48;;;;;;;;;;;22.00;65.10;;;;;;5017334;28;19925;-73
2021/07/12 10:06:14;;;;;;;;;;;22.00;65.00;;;;;;4991902;28;19918;-72
2021/07/12 10:08:39;;;;;;;;;;;22.00;64.90;;;;;;4987646;28;19922;-72
2021/07/12 10:11:04;;;;;;;;;;;22.00;64.70;;;;;;4995730;28;20470;-71
2021/07/12 10:13:30;;;;;;;;;;;22.00;64.30;;;;;;4982919;28;19922;-72
2021/07/12 10:15:55;;;;;;;;;;;22.00;64.20;;;;;;4991502;28;19921;-73
2021/07/12 10:18:21;;;;;;;;;;;22.00;64.50;;;;;;4983284;28;20560;-71
2021/07/12 10:20:46;;;;;;;;;;;22.00;64.80;;;;;;5002943;28;19917;-74
2021/07/12 10:23:12;;;;;;;;;;;22.00;64.80;;;;;;4998626;28;19917;-72
2021/07/12 10:25:37;;;;;;;;;;;22.00;65.50;;;;;;4994864;28;19928;-72
2021/07/12 10:28:04;;;;;;;;;;;22.00;65.40;;;;;;4998559;28;19945;-71
2021/07/12 10:30:31;;;;;;;;;;;22.00;65.30;;;;;;4994335;28;19920;-72
2021/07/12 10:33:03;;;;;;;;;;;22.00;65.20;;;;;;4996598;28;20426;-72
2021/07/12 10:35:39;;;;;;;;;;;22.00;65.20;;;;;;4997924;28;19914;-72
2021/07/12 10:38:04;;;;;;;;;;;22.00;65.00;;;;;;5004483;28;19913;-73
2021/07/12 10:40:43;;;;;;;;;;;22.10;65.20;;;;;;4993298;28;19914;-71
2021/07/12 10:43:08;;;;;;;;;;;22.10;64.90;;;;;;4976211;28;19918;-72
2021/07/12 10:45:35;;;;;;;;;;;22.00;64.70;;;;;;4997842;28;20403;-72
2021/07/12 10:48:04;;;;;;;;;;;22.10;64.40;;;;;;4998817;28;19999;-72
2021/07/12 10:50:39;;;;;;;;;;;22.10;63.90;;;;;;5003312;28;19920;-73
2021/07/12 10:53:13;;;;;;;;;;;22.10;63.50;;;;;;5003476;28;19918;-72
2021/07/12 10:55:39;;;;;;;;;;;22.10;63.20;;;;;;4998603;28;19913;-70
2021/07/12 10:58:23;;;;;;;;;;;22.10;63.90;;;;;;5000364;28;19913;-71
2021/07/12 11:00:49;;;;;;;;;;;22.10;63.40;;;;;;5000287;28;20371;-71
2021/07/12 11:03:33;;;;;;;;;;;22.10;62.80;;;;;;4983849;28;19968;-71
2021/07/12 11:05:58;;;;;;;;;;;22.10;63.40;;;;;;5027122;28;19917;-72
2021/07/12 11:08:43;;;;;;;;;;;22.10;63.50;;;;;;5027914;28;19927;-72
2021/07/12 11:11:08;;;;;;;;;;;22.10;63.70;;;;;;5004778;28;19918;-72
2021/07/12 11:13:53;;;;;;;;;;;22.10;64.00;;;;;;4996149;28;19925;-72
2021/07/12 11:16:19;;;;;;;;;;;22.10;63.60;;;;;;5017372;28;20060;-73
2021/07/12 11:18:44;;;;;;;;;;;22.10;63.90;;;;;;4994988;28;19913;-72
2021/07/12 11:21:11;;;;;;;;;;;22.10;63.90;;;;;;4997872;28;20322;-71
2021/07/12 11:23:38;;;;;;;;;;;22.10;64.00;;;;;;4991752;28;19914;-72
2021/07/12 11:26:03;;;;;;;;;;;22.10;64.10;;;;;;4988727;28;19925;-72
2021/07/12 11:28:42;;;;;;;;;;;22.10;64.10;;;;;;5000162;28;19914;-71
2021/07/12 11:31:27;;;;;;;;;;;22.10;64.10;;;;;;4990980;28;19913;-73
2021/07/12 11:33:57;;;;;;;;;;;22.10;64.00;;;;;;5009936;23;20012;-71
2021/07/12 11:36:22;;;;;;;;;;;22.10;64.10;;;;;;4989762;28;19913;-71
2021/07/12 11:38:48;;;;;;;;;;;22.10;64.00;;;;;;5005472;28;20041;-71
2021/07/12 11:41:13;;;;;;;;;;;22.10;63.90;;;;;;5005385;28;19921;-71
2021/07/12 11:43:38;;;;;;;;;;;22.10;63.90;;;;;;5004612;28;20416;-71
2021/07/12 11:46:04;;;;;;;;;;;22.10;63.80;;;;;;5006025;28;19921;-71
2021/07/12 11:48:29;;;;;;;;;;;22.10;63.80;;;;;;5007508;28;19913;-72
2021/07/12 11:50:55;;;;;;;;;;;22.10;63.80;;;;;;5006393;28;19913;-72
2021/07/12 11:53:20;;;;;;;;;;;22.10;63.90;;;;;;5006651;28;20321;-72
2021/07/12 11:55:46;;;;;;;;;;;22.10;63.80;;;;;;5008438;28;19925;-73
2021/07/12 11:58:11;;;;;;;;;;;22.10;63.80;;;;;;5008593;28;19917;-72
2021/07/12 12:00:37;;;;;;;;;;;22.10;63.80;;;;;;5007804;28;19921;-71
2021/07/12 12:03:04;;;;;;;;;;;22.10;63.90;;;;;;5007155;28;19913;-71
2021/07/12 12:05:30;;;;;;;;;;;22.20;63.90;;;;;;5005308;28;19913;-72
2021/07/12 12:07:58;;;;;;;;;;;22.20;63.90;;;;;;5009239;28;19913;-71
2021/07/12 12:10:24;;;;;;;;;;;22.20;63.90;;;;;;5007549;28;19917;-71
2021/07/12 12:12:50;;;;;;;;;;;22.20;63.60;;;;;;5010327;28;20390;-70
2021/07/12 12:15:16;;;;;;;;;;;22.20;63.60;;;;;;5009002;28;19914;-71
2021/07/12 12:17:43;;;;;;;;;;;22.20;63.40;;;;;;5011335;28;19918;-70
2021/07/12 12:20:19;;;;;;;;;;;22.20;63.50;;;;;;5011177;28;19963;-70
2021/07/12 12:22:51;;;;;;;;;;;22.20;63.20;;;;;;5010900;28;20383;-72
2021/07/12 12:25:17;;;;;;;;;;;22.20;63.30;;;;;;5023067;28;19913;-72
2021/07/12 12:27:42;;;;;;;;;;;22.20;63.40;;;;;;5028079;28;19914;-71
2021/07/12 12:30:08;;;;;;;;;;;22.20;63.30;;;;;;5026074;28;19925;-72
2021/07/12 12:32:34;;;;;;;;;;;22.20;63.30;;;;;;5025852;28;20357;-71
2021/07/12 12:35:00;;;;;;;;;;;22.20;63.40;;;;;;5025377;28;19928;-72
2021/07/12 12:37:35;;;;;;;;;;;22.20;63.40;;;;;;5025373;28;19948;-72
2021/07/12 12:40:20;;;;;;;;;;;22.20;63.40;;;;;;5023715;28;19937;-71
2021/07/12 12:42:46;;;;;;;;;;;22.20;63.30;;;;;;5006228;28;19914;-71
2021/07/12 12:45:12;;;;;;;;;;;22.20;63.40;;;;;;4994721;28;19917;-72
2021/07/12 12:47:42;;;;;;;;;;;22.20;63.30;;;;;;5022784;28;19921;-71
2021/07/12 12:50:15;;;;;;;;;;;22.20;63.30;;;;;;5024942;28;22863;-72
2021/07/12 12:52:40;;;;;;;;;;;22.20;63.30;;;;;;5008849;28;19925;-71
2021/07/12 12:55:11;;;;;;;;;;;22.20;63.30;;;;;;5024070;28;20031;-71
2021/07/12 12:57:40;;;;;;;;;;;22.20;63.40;;;;;;5027297;28;19917;-72
2021/07/12 13:00:09;;;;;;;;;;;22.20;63.30;;;;;;5023961;28;19917;-72
2021/07/12 13:02:38;;;;;;;;;;;22.20;63.20;;;;;;5026704;28;19976;-71
2021/07/12 13:05:08;;;;;;;;;;;22.20;63.20;;;;;;5023655;28;19913;-72
2021/07/12 13:07:41;;;;;;;;;;;22.20;63.30;;;;;;5024878;28;19940;-71
2021/07/12 13:10:08;;;;;;;;;;;22.30;63.40;;;;;;5015911;28;20318;-72
2021/07/12 13:12:37;;;;;;;;;;;22.30;63.20;;;;;;5026247;28;20381;-71
2021/07/12 13:15:03;;;;;;;;;;;22.30;63.30;;;;;;5023987;28;19914;-71
2021/07/12 13:17:29;;;;;;;;;;;22.30;63.20;;;;;;5026307;28;20263;-71
2021/07/12 13:19:59;;;;;;;;;;;22.30;63.30;;;;;;5023419;28;19952;-71
2021/07/12 13:22:28;;;;;;;;;;;22.30;63.20;;;;;;5025755;28;19917;-71
2021/07/12 13:24:54;;;;;;;;;;;22.30;63.10;;;;;;5023929;28;19935;-71
2021/07/12 13:27:21;;;;;;;;;;;22.30;63.20;;;;;;5025437;28;19921;-72
2021/07/12 13:29:46;;;;;;;;;;;22.30;63.10;;;;;;5026757;28;20011;-71
2021/07/12 13:32:12;;;;;;;;;;;22.30;63.10;;;;;;5023666;28;19974;-72
2021/07/12 13:34:47;;;;;;;;;;;22.30;62.80;;;;;;5023544;28;19925;-71
2021/07/12 13:37:12;;;;;;;;;;;22.30;63.00;;;;;;5023098;28;20000;-71
2021/07/12 13:39:38;;;;;;;;;;;22.30;62.90;;;;;;5026028;28;20598;-71
2021/07/12 13:42:04;;;;;;;;;;;22.30;62.90;;;;;;5021637;28;19967;-72
2021/07/12 13:44:30;;;;;;;;;;;22.30;62.80;;;;;;5019643;28;20491;-72
2021/07/12 13:46:55;;;;;;;;;;;22.30;62.70;;;;;;5023509;28;19975;-72
2021/07/12 13:49:21;;;;;;;;;;;22.30;62.80;;;;;;5024852;28;20326;-71
2021/07/12 13:51:46;;;;;;;;;;;22.30;62.70;;;;;;5026395;28;19933;-71
2021/07/12 13:54:12;;;;;;;;;;;22.30;62.70;;;;;;5024491;28;19917;-71
2021/07/12 13:56:37;;;;;;;;;;;22.30;62.60;;;;;;5026078;28;19921;-71
2021/07/12 13:59:03;;;;;;;;;;;22.30;62.50;;;;;;5022942;28;19920;-72
2021/07/12 14:01:28;;;;;;;;;;;22.30;62.60;;;;;;5024273;28;19922;-72
2021/07/12 14:03:53;;;;;;;;;;;22.30;62.60;;;;;;5023985;28;19921;-71
2021/07/12 14:06:19;;;;;;;;;;;22.30;62.60;;;;;;5025991;28;19913;-71
2021/07/12 14:08:44;;;;;;;;;;;22.40;62.70;;;;;;5025763;28;19924;-72
2021/07/12 14:11:10;;;;;;;;;;;22.40;62.70;;;;;;5025689;28;19964;-71
2021/07/12 14:13:35;;;;;;;;;;;22.40;62.70;;;;;;5025663;28;20374;-72
2021/07/12 14:16:01;;;;;;;;;;;22.40;62.70;;;;;;5026133;28;19913;-72
2021/07/12 14:18:26;;;;;;;;;;;22.40;62.70;;;;;;5025117;28;20366;-73